Time;durP1;ratioP1;P1;durP2;ratioP2;P2;SDS_P1;SDS_P2;PMS_P1;PMS_P2;Temp;Humidity;BMP_temperature;BMP_pressure;BME280_temperature;BME280_humidity;BME280_pressure;Samples;Min_cycle;Max_cycle;Signal;HPM_P1;HPM_P2
2021/04/28 00:01:26;;;;;;;8.80;6.87;;;;;;;;;;4995200;28;20475;-57
2021/04/28 00:03:53;;;;;;;11.50;7.80;;;;;;;;;;4995210;28;21010;-61
2021/04/28 00:06:20;;;;;;;11.27;7.47;;;;;;;;;;4995025;28;20894;-59
2021/04/28 00:08:47;;;;;;;13.53;7.17;;;;;;;;;;4995313;28;20529;-59
2021/04/28 00:11:13;;;;;;;11.97;6.67;;;;;;;;;;4994926;28;20478;-60
2021/04/28 00:13:40;;;;;;;13.07;7.43;;;;;;;;;;4995296;28;20819;-57
2021/04/28 00:16:07;;;;;;;16.07;7.70;;;;;;;;;;4995163;28;20474;-58
2021/04/28 00:18:33;;;;;;;10.20;7.30;;;;;;;;;;4994962;28;20447;-57
2021/04/28 00:21:00;;;;;;;10.40;7.00;;;;;;;;;;4994441;28;20477;-58
2021/04/28 00:23:27;;;;;;;9.10;6.70;;;;;;;;;;4995027;28;20564;-56
2021/04/28 00:25:53;;;;;;;11.90;7.33;;;;;;;;;;4995130;28;20458;-60
2021/04/28 00:28:20;;;;;;;11.30;7.60;;;;;;;;;;4994744;28;20446;-55
2021/04/28 00:30:47;;;;;;;11.33;7.53;;;;;;;;;;4994708;28;21138;-57
2021/04/28 00:33:13;;;;;;;12.03;7.83;;;;;;;;;;4994531;28;20470;-58
2021/04/28 00:35:40;;;;;;;14.07;8.00;;;;;;;;;;4994475;28;20814;-58
2021/04/28 00:38:06;;;;;;;10.90;7.90;;;;;;;;;;4994764;28;20454;-57
2021/04/28 00:40:35;;;;;;;9.70;7.53;;;;;;;;;;4994264;28;20809;-58
2021/04/28 00:43:02;;;;;;;10.67;7.83;;;;;;;;;;4994218;28;20490;-60
2021/04/28 00:45:29;;;;;;;13.80;7.93;;;;;;;;;;4994293;28;20466;-59
2021/04/28 00:47:56;;;;;;;10.87;7.73;;;;;;;;;;4994361;28;20541;-60
2021/04/28 00:50:25;;;;;;;13.60;8.07;;;;;;;;;;4993930;28;20951;-56
2021/04/28 00:52:52;;;;;;;12.80;7.70;;;;;;;;;;4994456;28;20471;-57
2021/04/28 00:55:18;;;;;;;15.40;7.50;;;;;;;;;;4994468;28;20447;-54
2021/04/28 00:57:46;;;;;;;13.90;8.17;;;;;;;;;;4994140;28;20571;-55
2021/04/28 01:00:14;;;;;;;8.97;6.97;;;;;;;;;;4993968;28;20450;-55
2021/04/28 01:02:41;;;;;;;11.73;7.70;;;;;;;;;;4994195;28;20517;-59
2021/04/28 01:05:08;;;;;;;12.10;7.80;;;;;;;;;;4995340;28;20809;-60
2021/04/28 01:07:36;;;;;;;11.17;7.63;;;;;;;;;;4994579;28;20450;-58
2021/04/28 01:10:06;;;;;;;11.37;7.07;;;;;;;;;;4994029;28;20493;-56
2021/04/28 01:12:32;;;;;;;10.60;7.13;;;;;;;;;;4994015;28;20478;-54
2021/04/28 01:15:01;;;;;;;11.63;8.40;;;;;;;;;;4993763;28;20451;-51
2021/04/28 01:17:28;;;;;;;11.53;7.53;;;;;;;;;;4994361;28;20458;-60
2021/04/28 01:19:54;;;;;;;11.77;7.70;;;;;;;;;;4994362;28;20451;-58
2021/04/28 01:22:21;;;;;;;10.63;7.87;;;;;;;;;;4994166;28;20493;-61
2021/04/28 01:24:49;;;;;;;12.70;7.30;;;;;;;;;;4994234;28;20454;-56
2021/04/28 01:27:17;;;;;;;10.77;7.07;;;;;;;;;;4994009;28;20550;-58
2021/04/28 01:29:45;;;;;;;12.77;7.60;;;;;;;;;;4993525;28;20450;-57
2021/04/28 01:32:13;;;;;;;10.73;7.40;;;;;;;;;;4993326;28;20474;-58
2021/04/28 01:34:41;;;;;;;10.37;8.07;;;;;;;;;;4993633;28;20509;-58
2021/04/28 01:37:07;;;;;;;12.77;8.13;;;;;;;;;;4993266;28;20554;-58
2021/04/28 01:39:35;;;;;;;16.33;8.63;;;;;;;;;;4993100;28;20521;-57
2021/04/28 01:42:02;;;;;;;12.90;8.23;;;;;;;;;;4992905;28;20478;-58
2021/04/28 01:44:29;;;;;;;11.73;7.80;;;;;;;;;;4993146;28;20970;-56
2021/04/28 01:46:56;;;;;;;14.07;8.30;;;;;;;;;;4993457;28;20450;-57
2021/04/28 01:49:23;;;;;;;11.30;7.53;;;;;;;;;;4993220;28;20828;-57
2021/04/28 01:51:50;;;;;;;13.10;7.60;;;;;;;;;;4993058;28;20474;-57
2021/04/28 01:54:18;;;;;;;11.63;7.83;;;;;;;;;;4993096;28;20476;-58
2021/04/28 01:56:45;;;;;;;13.17;8.97;;;;;;;;;;4993049;28;20450;-58
2021/04/28 01:59:15;;;;;;;12.83;8.17;;;;;;;;;;4992810;28;20807;-57
2021/04/28 02:01:42;;;;;;;12.83;7.93;;;;;;;;;;4992907;28;20493;-59
2021/04/28 02:04:09;;;;;;;14.53;8.10;;;;;;;;;;4993018;28;20492;-58
2021/04/28 02:06:38;;;;;;;12.30;8.77;;;;;;;;;;4992790;28;20461;-59
2021/04/28 02:09:05;;;;;;;9.83;7.97;;;;;;;;;;4992924;28;20454;-60
2021/04/28 02:11:31;;;;;;;12.13;8.07;;;;;;;;;;4992428;28;20532;-58
2021/04/28 02:13:58;;;;;;;13.40;8.67;;;;;;;;;;4992960;28;20447;-59
2021/04/28 02:16:26;;;;;;;14.70;8.37;;;;;;;;;;4992778;28;20458;-55
2021/04/28 02:18:53;;;;;;;11.47;8.93;;;;;;;;;;4992751;28;20455;-58
2021/04/28 02:21:19;;;;;;;12.60;8.97;;;;;;;;;;4992459;28;21049;-58
2021/04/28 02:23:46;;;;;;;11.30;8.77;;;;;;;;;;4992465;28;20987;-56
2021/04/28 02:26:14;;;;;;;11.43;9.40;;;;;;;;;;4992654;28;20824;-54
2021/04/28 02:28:40;;;;;;;11.00;8.67;;;;;;;;;;4992702;28;20462;-57
2021/04/28 02:31:07;;;;;;;14.50;9.10;;;;;;;;;;4992652;28;20453;-57
2021/04/28 02:33:35;;;;;;;13.90;8.57;;;;;;;;;;4992694;28;20457;-53
2021/04/28 02:36:02;;;;;;;11.80;8.93;;;;;;;;;;4992540;28;20520;-54
2021/04/28 02:38:30;;;;;;;12.67;9.63;;;;;;;;;;4992655;28;20455;-51
2021/04/28 02:40:57;;;;;;;15.30;9.50;;;;;;;;;;4992320;28;20454;-53
2021/04/28 02:43:23;;;;;;;12.97;9.70;;;;;;;;;;4992341;28;20495;-51
2021/04/28 02:45:51;;;;;;;18.40;8.80;;;;;;;;;;4992473;28;20461;-56
2021/04/28 02:48:20;;;;;;;11.27;9.30;;;;;;;;;;4992542;28;20453;-57
2021/04/28 02:50:48;;;;;;;16.23;9.33;;;;;;;;;;4992552;28;20457;-58
2021/04/28 02:53:15;;;;;;;14.20;9.60;;;;;;;;;;4996320;28;20532;-51
2021/04/28 02:55:42;;;;;;;17.77;9.60;;;;;;;;;;4996604;28;20453;-55
2021/04/28 02:58:09;;;;;;;13.60;9.87;;;;;;;;;;4996421;28;20458;-55
2021/04/28 03:00:36;;;;;;;14.20;9.77;;;;;;;;;;4996142;28;20461;-53
2021/04/28 03:03:02;;;;;;;12.97;9.83;;;;;;;;;;4996144;28;20489;-50
2021/04/28 03:05:29;;;;;;;13.70;10.90;;;;;;;;;;4996128;28;20450;-54
2021/04/28 03:07:56;;;;;;;15.13;9.20;;;;;;;;;;4996265;28;20494;-54
2021/04/28 03:10:23;;;;;;;13.93;9.20;;;;;;;;;;4996989;28;20561;-58
2021/04/28 03:12:50;;;;;;;14.40;10.07;;;;;;;;;;4996642;28;20476;-55
2021/04/28 03:15:17;;;;;;;15.63;10.13;;;;;;;;;;4996033;28;20451;-55
2021/04/28 03:17:45;;;;;;;16.33;9.53;;;;;;;;;;4996024;28;20444;-50
2021/04/28 03:20:12;;;;;;;18.70;10.47;;;;;;;;;;4996138;28;20461;-56
2021/04/28 03:22:39;;;;;;;16.50;10.50;;;;;;;;;;4996709;28;20859;-56
2021/04/28 03:25:08;;;;;;;13.93;9.63;;;;;;;;;;4996217;28;20449;-55
2021/04/28 03:27:34;;;;;;;16.47;10.57;;;;;;;;;;4996205;28;20464;-57
2021/04/28 03:30:01;;;;;;;14.13;10.57;;;;;;;;;;4995815;28;20468;-58
2021/04/28 03:32:27;;;;;;;14.10;10.57;;;;;;;;;;4995700;28;20533;-59
2021/04/28 03:34:54;;;;;;;20.97;10.73;;;;;;;;;;4995698;28;20448;-58
2021/04/28 03:37:20;;;;;;;13.57;10.53;;;;;;;;;;4996035;28;20463;-57
2021/04/28 03:39:47;;;;;;;16.57;10.47;;;;;;;;;;4995458;28;20857;-56
2021/04/28 03:42:14;;;;;;;12.83;10.53;;;;;;;;;;4995379;28;20544;-56
2021/04/28 03:44:41;;;;;;;20.43;11.37;;;;;;;;;;4995456;28;20448;-56
2021/04/28 03:47:07;;;;;;;13.83;11.10;;;;;;;;;;4995418;28;20454;-57
2021/04/28 03:49:34;;;;;;;16.97;11.60;;;;;;;;;;4995141;28;20471;-59
2021/04/28 03:52:00;;;;;;;13.77;10.67;;;;;;;;;;4995452;28;20530;-56
2021/04/28 03:54:27;;;;;;;15.13;11.53;;;;;;;;;;4995473;28;20458;-58
2021/04/28 03:56:53;;;;;;;15.27;11.20;;;;;;;;;;4995435;28;20456;-52
2021/04/28 03:59:21;;;;;;;17.03;10.83;;;;;;;;;;4995262;28;20461;-56
2021/04/28 04:01:47;;;;;;;18.80;11.10;;;;;;;;;;4994348;28;21009;-55
2021/04/28 04:04:14;;;;;;;17.77;11.13;;;;;;;;;;4995291;28;20485;-57
2021/04/28 04:06:40;;;;;;;16.67;10.97;;;;;;;;;;4995104;28;20485;-58
2021/04/28 04:09:07;;;;;;;14.30;10.87;;;;;;;;;;4995212;28;20456;-60
2021/04/28 04:11:34;;;;;;;14.17;11.30;;;;;;;;;;4994836;28;20487;-56
2021/04/28 04:14:01;;;;;;;17.33;11.17;;;;;;;;;;4994936;28;20482;-58
2021/04/28 04:16:29;;;;;;;15.83;11.00;;;;;;;;;;4995068;28;20459;-53
2021/04/28 04:18:55;;;;;;;14.30;10.93;;;;;;;;;;4995009;28;20518;-58
2021/04/28 04:21:22;;;;;;;16.67;10.70;;;;;;;;;;4994779;28;20848;-56
2021/04/28 04:23:48;;;;;;;16.47;11.67;;;;;;;;;;4993205;28;20498;-57
2021/04/28 04:26:15;;;;;;;18.23;11.00;;;;;;;;;;4994758;28;20457;-56
2021/04/28 04:28:42;;;;;;;17.70;11.03;;;;;;;;;;4993973;28;20474;-58
2021/04/28 04:31:08;;;;;;;16.13;11.00;;;;;;;;;;4994144;28;20451;-58
2021/04/28 04:33:35;;;;;;;17.43;11.80;;;;;;;;;;4995162;28;20904;-58
2021/04/28 04:36:02;;;;;;;18.80;11.83;;;;;;;;;;4994549;28;20458;-58
2021/04/28 04:38:28;;;;;;;15.37;10.90;;;;;;;;;;4994551;28;20456;-58
2021/04/28 04:40:55;;;;;;;19.67;13.57;;;;;;;;;;4994346;28;20457;-58
2021/04/28 04:43:22;;;;;;;22.83;13.53;;;;;;;;;;4994060;28;20520;-58
2021/04/28 04:45:48;;;;;;;16.73;11.77;;;;;;;;;;4994584;28;20458;-57
2021/04/28 04:48:15;;;;;;;17.10;11.50;;;;;;;;;;4994458;28;20508;-56
2021/04/28 04:50:42;;;;;;;15.37;11.93;;;;;;;;;;4994366;28;20449;-58
2021/04/28 04:53:09;;;;;;;16.87;12.53;;;;;;;;;;4994799;28;20480;-58
2021/04/28 04:55:36;;;;;;;17.73;12.77;;;;;;;;;;4994219;28;20551;-58
2021/04/28 04:58:03;;;;;;;24.20;12.93;;;;;;;;;;4994003;28;20448;-57
2021/04/28 05:00:29;;;;;;;23.03;13.30;;;;;;;;;;4993924;28;20467;-57
2021/04/28 05:02:56;;;;;;;20.53;13.70;;;;;;;;;;4993929;28;20490;-58
2021/04/28 05:05:22;;;;;;;20.27;13.13;;;;;;;;;;4993909;28;20461;-57
2021/04/28 05:07:50;;;;;;;19.40;12.17;;;;;;;;;;4994292;28;20455;-58
2021/04/28 05:10:17;;;;;;;22.43;12.60;;;;;;;;;;4994161;28;20548;-57
2021/04/28 05:12:46;;;;;;;18.47;12.20;;;;;;;;;;4993364;28;20468;-52
2021/04/28 05:15:13;;;;;;;20.30;12.87;;;;;;;;;;4993169;28;20805;-58
2021/04/28 05:17:40;;;;;;;17.60;12.60;;;;;;;;;;4993618;28;20460;-56
2021/04/28 05:20:07;;;;;;;24.70;13.07;;;;;;;;;;4993547;28;20502;-56
2021/04/28 05:22:34;;;;;;;20.40;11.67;;;;;;;;;;4993409;28;20494;-55
2021/04/28 05:25:01;;;;;;;21.67;13.60;;;;;;;;;;4993531;28;20806;-54
2021/04/28 05:27:28;;;;;;;17.23;12.73;;;;;;;;;;4993608;28;20506;-53
2021/04/28 05:29:55;;;;;;;18.40;11.80;;;;;;;;;;4993148;28;20878;-60
2021/04/28 05:32:21;;;;;;;17.90;12.90;;;;;;;;;;4993472;28;20537;-56
2021/04/28 05:34:48;;;;;;;18.00;12.33;;;;;;;;;;4993378;28;20485;-55
2021/04/28 05:37:18;;;;;;;16.67;12.40;;;;;;;;;;4994363;28;20458;-58
2021/04/28 05:39:45;;;;;;;17.57;12.20;;;;;;;;;;4993944;28;20458;-59
2021/04/28 05:42:12;;;;;;;30.20;13.40;;;;;;;;;;4993921;28;20483;-51
2021/04/28 05:44:39;;;;;;;19.93;12.73;;;;;;;;;;4994157;28;20447;-57
2021/04/28 05:47:06;;;;;;;20.57;12.37;;;;;;;;;;4993861;28;20476;-54
2021/04/28 05:49:32;;;;;;;17.57;12.30;;;;;;;;;;4993510;28;20458;-57
2021/04/28 05:51:59;;;;;;;17.97;12.33;;;;;;;;;;4992909;28;20478;-60
2021/04/28 05:54:26;;;;;;;18.93;13.23;;;;;;;;;;4993633;28;20871;-60
2021/04/28 05:56:52;;;;;;;18.07;12.13;;;;;;;;;;4993149;28;20450;-61
2021/04/28 05:59:19;;;;;;;21.13;13.27;;;;;;;;;;4993821;28;20453;-53
2021/04/28 06:01:46;;;;;;;22.83;12.90;;;;;;;;;;4992649;28;20478;-53
2021/04/28 06:04:13;;;;;;;14.10;11.47;;;;;;;;;;4992851;28;20482;-54
2021/04/28 06:06:39;;;;;;;18.10;12.43;;;;;;;;;;4992883;28;20458;-57
2021/04/28 06:09:06;;;;;;;13.57;11.90;;;;;;;;;;4992690;28;20458;-58
2021/04/28 06:11:32;;;;;;;15.83;10.97;;;;;;;;;;4992569;28;20474;-57
2021/04/28 06:13:59;;;;;;;18.23;11.70;;;;;;;;;;4993108;28;20451;-55
2021/04/28 06:16:26;;;;;;;15.00;11.53;;;;;;;;;;4992983;28;20535;-57
2021/04/28 06:18:53;;;;;;;20.77;11.30;;;;;;;;;;4993018;28;20451;-58
2021/04/28 06:21:20;;;;;;;15.13;11.30;;;;;;;;;;4992266;28;20490;-59
2021/04/28 06:23:46;;;;;;;15.90;11.57;;;;;;;;;;4992552;28;20635;-59
2021/04/28 06:26:13;;;;;;;13.13;10.13;;;;;;;;;;4992579;28;20591;-59
2021/04/28 06:28:39;;;;;;;15.83;11.17;;;;;;;;;;4992878;28;20344;-58
2021/04/28 06:31:06;;;;;;;16.33;10.93;;;;;;;;;;4991635;28;20447;-62
2021/04/28 06:33:33;;;;;;;13.67;10.77;;;;;;;;;;4992757;28;20219;-58
2021/04/28 06:36:00;;;;;;;18.90;12.37;;;;;;;;;;4992453;28;20213;-56
2021/04/28 06:38:26;;;;;;;25.77;14.30;;;;;;;;;;4993057;28;20622;-57
2021/04/28 06:40:53;;;;;;;29.50;14.73;;;;;;;;;;4992373;28;20209;-58
2021/04/28 06:43:19;;;;;;;25.90;15.13;;;;;;;;;;4992847;28;20633;-57
2021/04/28 06:45:46;;;;;;;21.60;13.77;;;;;;;;;;4992528;28;20742;-58
2021/04/28 06:48:13;;;;;;;24.07;13.80;;;;;;;;;;4992691;28;20203;-58
2021/04/28 06:50:40;;;;;;;21.77;12.70;;;;;;;;;;4992228;28;20292;-57
2021/04/28 06:53:06;;;;;;;18.03;12.57;;;;;;;;;;4992682;28;20254;-59
2021/04/28 06:55:34;;;;;;;19.47;11.57;;;;;;;;;;4992751;28;20208;-59
2021/04/28 06:58:01;;;;;;;16.67;10.90;;;;;;;;;;4992563;28;20306;-59
2021/04/28 07:00:28;;;;;;;19.27;10.90;;;;;;;;;;4992201;28;20326;-59
2021/04/28 07:02:55;;;;;;;19.80;10.10;;;;;;;;;;4992517;28;20228;-58
2021/04/28 07:05:22;;;;;;;16.10;10.77;;;;;;;;;;4992228;28;20282;-60
2021/04/28 07:07:50;;;;;;;19.03;12.23;;;;;;;;;;4992646;28;20227;-57
2021/04/28 07:10:17;;;;;;;23.97;13.10;;;;;;;;;;4992166;28;20212;-59
2021/04/28 07:12:43;;;;;;;19.57;10.27;;;;;;;;;;4992387;28;20274;-60
2021/04/28 07:15:11;;;;;;;20.73;10.03;;;;;;;;;;4992426;28;20208;-59
2021/04/28 07:17:38;;;;;;;17.97;10.13;;;;;;;;;;4992440;28;20242;-59
2021/04/28 07:20:05;;;;;;;17.43;9.70;;;;;;;;;;4991961;28;20787;-55
2021/04/28 07:22:32;;;;;;;15.30;9.50;;;;;;;;;;4992319;28;20228;-58
2021/04/28 07:24:59;;;;;;;13.47;9.40;;;;;;;;;;4992437;28;20209;-60
2021/04/28 07:27:26;;;;;;;14.10;9.50;;;;;;;;;;4992285;28;20585;-60
2021/04/28 07:29:52;;;;;;;17.50;10.33;;;;;;;;;;4991800;28;20217;-57
2021/04/28 07:32:19;;;;;;;18.37;12.00;;;;;;;;;;4991940;28;20577;-59
2021/04/28 07:34:46;;;;;;;16.83;10.33;;;;;;;;;;4992549;28;20224;-59
2021/04/28 07:37:12;;;;;;;14.60;10.00;;;;;;;;;;4993788;28;20210;-59
2021/04/28 07:39:39;;;;;;;14.97;9.40;;;;;;;;;;4995941;28;20208;-57
2021/04/28 07:42:07;;;;;;;15.17;8.80;;;;;;;;;;4996097;28;20264;-59
2021/04/28 07:44:34;;;;;;;13.53;8.87;;;;;;;;;;4995736;28;20227;-58
2021/04/28 07:47:01;;;;;;;10.53;8.30;;;;;;;;;;4995824;28;20484;-58
2021/04/28 07:49:27;;;;;;;12.60;9.27;;;;;;;;;;4996168;28;20317;-55
2021/04/28 07:51:54;;;;;;;13.43;9.27;;;;;;;;;;4995508;28;20235;-57
2021/04/28 07:54:21;;;;;;;12.77;9.20;;;;;;;;;;4995798;28;20221;-57
2021/04/28 07:56:48;;;;;;;14.60;9.17;;;;;;;;;;4995329;28;20214;-54
2021/04/28 07:59:16;;;;;;;14.90;9.17;;;;;;;;;;4995511;28;20210;-58
2021/04/28 08:01:42;;;;;;;16.00;9.50;;;;;;;;;;4994731;28;20229;-60
2021/04/28 08:04:09;;;;;;;15.77;9.70;;;;;;;;;;4995228;28;20238;-60
2021/04/28 08:06:35;;;;;;;14.70;9.40;;;;;;;;;;4995412;28;20211;-60
2021/04/28 08:09:02;;;;;;;13.73;10.07;;;;;;;;;;4995297;28;20214;-60
2021/04/28 08:11:29;;;;;;;14.53;9.50;;;;;;;;;;4994883;28;20234;-59
2021/04/28 08:13:55;;;;;;;13.50;10.63;;;;;;;;;;4994981;28;20216;-60
2021/04/28 08:16:23;;;;;;;16.80;11.40;;;;;;;;;;4995195;28;20208;-59
2021/04/28 08:18:49;;;;;;;18.63;10.90;;;;;;;;;;4995007;28;20211;-59
2021/04/28 08:21:16;;;;;;;15.83;10.67;;;;;;;;;;4994519;28;20228;-58
2021/04/28 08:23:43;;;;;;;14.87;10.43;;;;;;;;;;4994758;28;20660;-61
2021/04/28 08:26:10;;;;;;;17.00;10.23;;;;;;;;;;4994846;28;20211;-59
2021/04/28 08:28:40;;;;;;;19.17;10.90;;;;;;;;;;4994665;28;20234;-58
2021/04/28 08:31:07;;;;;;;17.60;10.97;;;;;;;;;;4994741;28;20294;-59
2021/04/28 08:33:34;;;;;;;17.43;11.10;;;;;;;;;;4994885;28;20566;-61
2021/04/28 08:36:01;;;;;;;15.50;10.47;;;;;;;;;;4994934;28;20660;-60
2021/04/28 08:38:27;;;;;;;16.50;10.50;;;;;;;;;;4994564;28;20239;-61
2021/04/28 08:40:54;;;;;;;15.10;10.50;;;;;;;;;;4994323;28;20700;-58
2021/04/28 08:43:22;;;;;;;20.83;10.63;;;;;;;;;;4994393;28;20597;-60
2021/04/28 08:45:49;;;;;;;20.37;10.03;;;;;;;;;;4994658;28;20243;-62
2021/04/28 08:48:15;;;;;;;12.97;9.20;;;;;;;;;;4993445;28;20208;-58
2021/04/28 08:50:43;;;;;;;16.10;9.10;;;;;;;;;;4993884;28;20676;-60
2021/04/28 08:53:12;;;;;;;17.47;9.50;;;;;;;;;;4994227;28;20239;-60
2021/04/28 08:55:39;;;;;;;15.77;9.03;;;;;;;;;;4994427;28;20299;-57
2021/04/28 08:58:06;;;;;;;11.87;8.80;;;;;;;;;;4994411;28;20211;-58
2021/04/28 09:00:33;;;;;;;10.87;8.37;;;;;;;;;;4993964;28;20204;-55
2021/04/28 09:03:00;;;;;;;12.13;8.17;;;;;;;;;;4994068;28;20225;-59
2021/04/28 09:05:27;;;;;;;14.97;8.90;;;;;;;;;;4994034;28;20206;-58
2021/04/28 09:07:54;;;;;;;16.17;8.63;;;;;;;;;;4994081;28;20213;-57
2021/04/28 09:10:23;;;;;;;11.77;8.30;;;;;;;;;;4993454;28;20216;-60
2021/04/28 09:12:53;;;;;;;14.80;8.67;;;;;;;;;;4994035;28;20229;-60
2021/04/28 09:15:36;;;;;;;10.93;7.83;;;;;;;;;;4994489;28;20256;-62
2021/04/28 09:18:03;;;;;;;11.13;7.67;;;;;;;;;;4994699;28;20213;-59
2021/04/28 09:20:32;;;;;;;14.47;7.53;;;;;;;;;;4995673;28;20209;-60
2021/04/28 09:23:08;;;;;;;10.73;7.97;;;;;;;;;;4996932;28;20238;-54
2021/04/28 09:25:39;;;;;;;10.10;7.70;;;;;;;;;;4995974;28;20297;-56
2021/04/28 09:28:25;;;;;;;9.40;7.57;;;;;;;;;;4995633;28;20207;-58
2021/04/28 09:30:56;;;;;;;14.03;7.77;;;;;;;;;;4994212;28;20245;-61
2021/04/28 09:33:23;;;;;;;13.33;8.57;;;;;;;;;;4994503;28;20299;-61
2021/04/28 09:35:59;;;;;;;13.43;7.57;;;;;;;;;;4994435;28;20683;-60
2021/04/28 09:38:26;;;;;;;11.93;7.70;;;;;;;;;;4994356;28;20252;-60
2021/04/28 09:40:56;;;;;;;10.90;7.67;;;;;;;;;;4994746;28;20274;-60
2021/04/28 09:43:23;;;;;;;10.87;7.80;;;;;;;;;;4993935;28;20223;-60
2021/04/28 09:45:51;;;;;;;12.90;8.47;;;;;;;;;;4994215;28;20215;-60
2021/04/28 09:48:19;;;;;;;12.33;8.13;;;;;;;;;;4994882;28;20207;-61
2021/04/28 09:50:46;;;;;;;10.80;8.10;;;;;;;;;;4993603;28;20214;-61
2021/04/28 09:53:23;;;;;;;10.60;7.70;;;;;;;;;;4993736;28;20223;-60
2021/04/28 09:55:50;;;;;;;14.93;8.10;;;;;;;;;;4993912;28;20214;-61
2021/04/28 09:58:16;;;;;;;11.00;7.30;;;;;;;;;;4993326;28;20219;-61
2021/04/28 10:00:43;;;;;;;9.73;7.63;;;;;;;;;;4992597;28;20311;-61
2021/04/28 10:03:10;;;;;;;13.87;8.17;;;;;;;;;;4993390;28;20231;-60
2021/04/28 10:05:45;;;;;;;13.43;8.13;;;;;;;;;;4993227;28;20621;-60
2021/04/28 10:08:13;;;;;;;12.23;7.97;;;;;;;;;;4993327;28;20294;-60
2021/04/28 10:10:40;;;;;;;11.37;8.10;;;;;;;;;;4992942;28;20758;-58
2021/04/28 10:13:07;;;;;;;12.20;8.33;;;;;;;;;;4993408;28;20230;-60
2021/04/28 10:15:34;;;;;;;12.80;7.80;;;;;;;;;;4993436;28;20207;-60
2021/04/28 10:18:02;;;;;;;15.20;8.30;;;;;;;;;;4993160;28;20219;-58
2021/04/28 10:20:30;;;;;;;10.37;7.70;;;;;;;;;;4992948;28;20231;-60
2021/04/28 10:22:56;;;;;;;8.97;7.40;;;;;;;;;;4994304;28;20228;-61
2021/04/28 10:25:23;;;;;;;15.80;8.93;;;;;;;;;;4995369;28;20211;-61
2021/04/28 10:27:50;;;;;;;13.67;7.97;;;;;;;;;;4996123;28;20207;-59
2021/04/28 10:30:18;;;;;;;12.47;8.60;;;;;;;;;;4996508;28;20254;-58
2021/04/28 10:32:45;;;;;;;12.17;8.67;;;;;;;;;;4996024;28;20231;-62
2021/04/28 10:35:15;;;;;;;15.63;8.53;;;;;;;;;;4995113;28;20247;-59
2021/04/28 10:37:44;;;;;;;13.50;8.60;;;;;;;;;;4994497;28;20214;-61
2021/04/28 10:40:12;;;;;;;10.80;7.70;;;;;;;;;;4994322;28;20231;-59
2021/04/28 10:42:41;;;;;;;11.20;8.17;;;;;;;;;;4993894;28;20297;-59
2021/04/28 10:45:09;;;;;;;15.77;8.30;;;;;;;;;;4995038;28;20230;-59
2021/04/28 10:47:40;;;;;;;15.87;9.07;;;;;;;;;;4994901;28;20274;-60
2021/04/28 10:50:14;;;;;;;12.20;8.63;;;;;;;;;;4993863;28;20215;-61
2021/04/28 10:52:42;;;;;;;9.57;7.70;;;;;;;;;;4993698;28;20318;-56
2021/04/28 10:55:37;;;;;;;10.80;8.50;;;;;;;;;;4993537;28;20219;-60
2021/04/28 10:58:04;;;;;;;11.97;8.90;;;;;;;;;;4992897;28;20223;-61
2021/04/28 11:00:30;;;;;;;9.93;7.40;;;;;;;;;;4992802;28;20211;-61
2021/04/28 11:03:00;;;;;;;12.07;8.93;;;;;;;;;;4992875;28;20235;-61
2021/04/28 11:05:27;;;;;;;12.90;9.47;;;;;;;;;;4992552;28;20207;-57
2021/04/28 11:07:55;;;;;;;10.70;8.77;;;;;;;;;;4992596;28;20243;-61
2021/04/28 11:10:28;;;;;;;13.20;8.80;;;;;;;;;;4992016;28;20579;-58
2021/04/28 11:13:05;;;;;;;12.80;8.50;;;;;;;;;;4994748;28;20223;-59
2021/04/28 11:15:51;;;;;;;12.27;8.43;;;;;;;;;;4996294;28;20204;-61
2021/04/28 11:18:32;;;;;;;11.40;8.00;;;;;;;;;;4996121;28;20258;-59
2021/04/28 11:21:26;;;;;;;13.53;7.93;;;;;;;;;;4995744;28;20207;-60
2021/04/28 11:24:06;;;;;;;10.13;7.70;;;;;;;;;;4996199;28;20262;-61
2021/04/28 11:26:34;;;;;;;11.10;8.17;;;;;;;;;;4996121;28;20208;-62
2021/04/28 11:29:01;;;;;;;9.87;7.43;;;;;;;;;;4997743;28;20578;-60
2021/04/28 11:31:40;;;;;;;11.43;8.43;;;;;;;;;;4995663;28;20238;-58
2021/04/28 11:34:17;;;;;;;12.43;8.23;;;;;;;;;;4996098;28;20210;-59
2021/04/28 11:36:49;;;;;;;12.00;8.40;;;;;;;;;;4995716;28;20683;-60
2021/04/28 11:39:31;;;;;;;14.20;8.47;;;;;;;;;;4996022;28;20213;-61
2021/04/28 11:42:03;;;;;;;12.40;9.37;;;;;;;;;;4995019;28;20251;-56
2021/04/28 11:44:29;;;;;;;12.40;8.30;;;;;;;;;;4995660;28;20226;-59
2021/04/28 11:46:56;;;;;;;11.30;8.27;;;;;;;;;;4995981;28;20211;-62
2021/04/28 11:49:23;;;;;;;13.03;8.37;;;;;;;;;;4995610;28;20212;-61
2021/04/28 11:51:57;;;;;;;10.10;8.20;;;;;;;;;;4995249;28;20257;-58
2021/04/28 11:54:24;;;;;;;14.20;8.63;;;;;;;;;;4995487;28;20207;-58
2021/04/28 11:56:51;;;;;;;11.07;8.90;;;;;;;;;;4995333;28;20609;-60
2021/04/28 11:59:21;;;;;;;11.33;9.40;;;;;;;;;;4995260;28;20204;-55
2021/04/28 12:01:48;;;;;;;12.83;8.63;;;;;;;;;;4994866;28;20738;-55
2021/04/28 12:04:15;;;;;;;14.33;9.37;;;;;;;;;;4995270;28;20231;-60
2021/04/28 12:06:43;;;;;;;11.80;8.23;;;;;;;;;;4995321;28;20587;-61
2021/04/28 12:09:17;;;;;;;13.83;8.00;;;;;;;;;;4995224;28;20208;-54
2021/04/28 12:11:45;;;;;;;11.13;7.77;;;;;;;;;;4994921;28;20241;-59
2021/04/28 12:14:12;;;;;;;10.07;7.37;;;;;;;;;;4995050;28;20210;-57
2021/04/28 12:16:52;;;;;;;9.30;6.90;;;;;;;;;;4995068;28;20839;-55
2021/04/28 12:19:19;;;;;;;9.03;6.70;;;;;;;;;;4995170;28;20203;-60
2021/04/28 12:21:53;;;;;;;11.80;7.80;;;;;;;;;;4994328;28;20232;-59
2021/04/28 12:24:27;;;;;;;11.07;7.40;;;;;;;;;;4989485;28;20233;-59
2021/04/28 12:27:04;;;;;;;11.47;8.17;;;;;;;;;;4994430;28;20251;-59
2021/04/28 12:29:31;;;;;;;15.03;7.83;;;;;;;;;;4994541;28;20607;-57
2021/04/28 12:31:57;;;;;;;13.07;8.10;;;;;;;;;;4994272;28;20226;-60
2021/04/28 12:34:24;;;;;;;10.93;7.77;;;;;;;;;;4993713;28;20288;-61
2021/04/28 12:36:50;;;;;;;12.10;8.00;;;;;;;;;;4994788;28;20266;-66
2021/04/28 12:39:28;;;;;;;11.57;7.63;;;;;;;;;;4994101;28;20239;-66
2021/04/28 12:41:55;;;;;;;10.87;8.27;;;;;;;;;;4994260;28;20247;-66
2021/04/28 12:44:22;;;;;;;11.13;8.80;;;;;;;;;;4994448;28;20646;-59
2021/04/28 12:46:49;;;;;;;14.07;9.50;;;;;;;;;;4994163;28;20691;-58
2021/04/28 12:49:17;;;;;;;11.97;8.93;;;;;;;;;;4994794;28;20243;-61
2021/04/28 12:51:45;;;;;;;10.77;8.60;;;;;;;;;;4993645;28;20234;-61
2021/04/28 12:54:12;;;;;;;11.10;8.40;;;;;;;;;;4994202;28;20204;-61
2021/04/28 12:56:40;;;;;;;12.60;9.33;;;;;;;;;;4994271;28;20215;-59
2021/04/28 12:59:15;;;;;;;11.90;9.33;;;;;;;;;;4994267;28;20215;-59
2021/04/28 13:01:42;;;;;;;14.27;8.80;;;;;;;;;;4993785;28;20230;-60
2021/04/28 13:04:18;;;;;;;13.77;8.90;;;;;;;;;;4995193;28;20275;-60
2021/04/28 13:06:44;;;;;;;12.10;8.47;;;;;;;;;;4994039;28;20294;-60
2021/04/28 13:09:13;;;;;;;11.17;8.67;;;;;;;;;;4994002;28;20214;-60
2021/04/28 13:11:42;;;;;;;12.37;8.70;;;;;;;;;;4993563;28;20767;-60
2021/04/28 13:14:15;;;;;;;12.93;9.53;;;;;;;;;;4993914;28;20258;-59
2021/04/28 13:16:42;;;;;;;11.40;8.60;;;;;;;;;;4994126;28;20207;-59
2021/04/28 13:19:10;;;;;;;14.40;9.27;;;;;;;;;;4994032;28;20645;-61
2021/04/28 13:21:37;;;;;;;11.33;8.77;;;;;;;;;;4993877;28;20231;-62
2021/04/28 13:24:05;;;;;;;12.27;8.27;;;;;;;;;;4993751;28;20223;-61
2021/04/28 13:26:33;;;;;;;11.37;7.87;;;;;;;;;;4993647;28;20215;-58
2021/04/28 13:29:00;;;;;;;13.20;8.50;;;;;;;;;;4993761;28;20231;-59
2021/04/28 13:31:28;;;;;;;11.60;8.27;;;;;;;;;;4993189;28;20230;-61
2021/04/28 13:33:55;;;;;;;13.17;6.83;;;;;;;;;;4993686;28;20210;-59
2021/04/28 13:36:23;;;;;;;7.67;5.37;;;;;;;;;;4993062;28;20208;-62
2021/04/28 13:38:50;;;;;;;8.43;5.43;;;;;;;;;;4993340;28;20243;-60
2021/04/28 13:41:17;;;;;;;10.07;5.80;;;;;;;;;;4993296;28;20211;-61
2021/04/28 13:43:44;;;;;;;12.80;8.77;;;;;;;;;;4993141;28;20727;-57
2021/04/28 13:46:11;;;;;;;7.13;4.60;;;;;;;;;;4993537;28;20210;-58
2021/04/28 13:48:38;;;;;;;7.87;5.53;;;;;;;;;;4993289;28;20703;-58
2021/04/28 13:51:05;;;;;;;10.83;5.13;;;;;;;;;;4993007;28;20203;-55
2021/04/28 13:53:32;;;;;;;8.30;4.90;;;;;;;;;;4993058;28;20687;-61
2021/04/28 13:55:59;;;;;;;8.80;4.73;;;;;;;;;;4993312;28;20207;-60
2021/04/28 13:58:25;;;;;;;8.23;5.50;;;;;;;;;;4993381;28;20208;-60
2021/04/28 14:00:52;;;;;;;13.23;9.43;;;;;;;;;;4992873;28;20211;-60
2021/04/28 14:03:19;;;;;;;12.67;8.30;;;;;;;;;;4993110;28;20223;-60
2021/04/28 14:05:46;;;;;;;16.73;8.80;;;;;;;;;;4993039;28;20218;-60
2021/04/28 14:08:12;;;;;;;12.33;8.00;;;;;;;;;;4992930;28;20218;-60
2021/04/28 14:10:39;;;;;;;8.93;6.80;;;;;;;;;;4992974;28;20211;-56
2021/04/28 14:13:05;;;;;;;12.40;7.90;;;;;;;;;;4993079;28;20716;-56
2021/04/28 14:15:32;;;;;;;9.40;7.53;;;;;;;;;;4993144;28;20262;-58
2021/04/28 14:17:58;;;;;;;12.77;7.73;;;;;;;;;;4993400;28;20238;-60
2021/04/28 14:20:26;;;;;;;14.63;8.10;;;;;;;;;;4992514;28;20278;-58
2021/04/28 14:22:52;;;;;;;11.17;8.37;;;;;;;;;;4992598;28;20746;-60
2021/04/28 14:25:19;;;;;;;13.50;8.77;;;;;;;;;;4992960;28;20238;-61
2021/04/28 14:27:45;;;;;;;10.03;7.73;;;;;;;;;;4992764;28;20211;-61
2021/04/28 14:30:13;;;;;;;12.37;8.50;;;;;;;;;;4992614;28;20216;-61